sensor_id;sensor_type;location;lat;lon;timestamp;pressure;altitude;pressure_sealevel;temperature;humidity
70902;BME280;58548;47.210;8.618;2022-12-18T00:01:30;94810.03;;;8.26;36.05
70902;BME280;58548;47.210;8.618;2022-12-18T00:04:00;94794.34;;;8.10;36.25
70902;BME280;58548;47.210;8.618;2022-12-18T00:06:28;94838.88;;;8.33;36.49
70902;BME280;58548;47.210;8.618;2022-12-18T00:08:59;94816.13;;;8.09;36.10
70902;BME280;58548;47.210;8.618;2022-12-18T00:11:30;94775.91;;;7.87;36.17
70902;BME280;58548;47.210;8.618;2022-12-18T00:13:59;94773.84;;;7.98;36.17
70902;BME280;58548;47.210;8.618;2022-12-18T00:16:27;94842.31;;;8.42;35.88
70902;BME280;58548;47.210;8.618;2022-12-18T00:18:59;94852.56;;;8.43;35.68
70902;BME280;58548;47.210;8.618;2022-12-18T00:21:29;94867.50;;;8.41;35.94
70902;BME280;58548;47.210;8.618;2022-12-18T00:23:55;94863.94;;;8.42;35.80
70902;BME280;58548;47.210;8.618;2022-12-18T00:26:26;94870.28;;;8.40;36.48
70902;BME280;58548;47.210;8.618;2022-12-18T00:28:53;94871.50;;;8.27;35.94
70902;BME280;58548;47.210;8.618;2022-12-18T00:31:23;94893.81;;;8.30;36.16
70902;BME280;58548;47.210;8.618;2022-12-18T00:33:55;94899.69;;;8.32;36.21
70902;BME280;58548;47.210;8.618;2022-12-18T00:36:29;94884.19;;;8.22;36.93
70902;BME280;58548;47.210;8.618;2022-12-18T00:39:01;94850.91;;;7.99;36.26
70902;BME280;58548;47.210;8.618;2022-12-18T00:41:28;94837.53;;;7.94;36.49
70902;BME280;58548;47.210;8.618;2022-12-18T00:44:18;94818.31;;;7.87;36.83
70902;BME280;58548;47.210;8.618;2022-12-18T00:46:47;94811.19;;;7.89;36.78
70902;BME280;58548;47.210;8.618;2022-12-18T00:49:16;94867.91;;;8.20;36.65
70902;BME280;58548;47.210;8.618;2022-12-18T00:51:42;94874.78;;;8.29;36.37
70902;BME280;58548;47.210;8.618;2022-12-18T00:54:13;94813.94;;;7.88;36.88
70902;BME280;58548;47.210;8.618;2022-12-18T00:56:44;94848.59;;;7.96;36.68
70902;BME280;58548;47.210;8.618;2022-12-18T00:59:10;94875.09;;;8.26;36.54
70902;BME280;58548;47.210;8.618;2022-12-18T01:01:36;94874.28;;;8.26;35.99
70902;BME280;58548;47.210;8.618;2022-12-18T01:04:04;94871.19;;;8.30;36.68
70902;BME280;58548;47.210;8.618;2022-12-18T01:06:30;94823.41;;;7.97;36.07
70902;BME280;58548;47.210;8.618;2022-12-18T01:08:59;94886.50;;;8.34;36.16
70902;BME280;58548;47.210;8.618;2022-12-18T01:11:27;94846.75;;;8.15;35.97
70902;BME280;58548;47.210;8.618;2022-12-18T01:13:59;94851.16;;;8.14;36.31
70902;BME280;58548;47.210;8.618;2022-12-18T01:16:27;94879.56;;;8.42;36.07
70902;BME280;58548;47.210;8.618;2022-12-18T01:18:54;94864.50;;;8.20;35.84
70902;BME280;58548;47.210;8.618;2022-12-18T01:21:21;94876.41;;;8.30;36.13
70902;BME280;58548;47.210;8.618;2022-12-18T01:23:51;94860.72;;;8.14;36.20
70902;BME280;58548;47.210;8.618;2022-12-18T01:26:18;94879.97;;;8.21;36.17
70902;BME280;58548;47.210;8.618;2022-12-18T01:28:44;94821.56;;;7.89;36.53
70902;BME280;58548;47.210;8.618;2022-12-18T01:33:42;94899.50;;;8.25;36.54
70902;BME280;58548;47.210;8.618;2022-12-18T01:36:16;94905.88;;;8.31;36.32
70902;BME280;58548;47.210;8.618;2022-12-18T01:38:46;94907.19;;;8.35;36.88
70902;BME280;58548;47.210;8.618;2022-12-18T01:41:16;94872.75;;;8.15;36.44
70902;BME280;58548;47.210;8.618;2022-12-18T01:44:00;94878.94;;;8.14;36.57
70902;BME280;58548;47.210;8.618;2022-12-18T01:46:28;94894.31;;;8.25;36.55
70902;BME280;58548;47.210;8.618;2022-12-18T01:48:57;94908.00;;;8.36;36.44
70902;BME280;58548;47.210;8.618;2022-12-18T01:51:24;94895.91;;;8.26;36.41
70902;BME280;58548;47.210;8.618;2022-12-18T01:53:51;94854.13;;;7.93;36.58
70902;BME280;58548;47.210;8.618;2022-12-18T01:56:22;94850.19;;;7.89;36.65
70902;BME280;58548;47.210;8.618;2022-12-18T01:59:08;94914.66;;;8.30;36.25
70902;BME280;58548;47.210;8.618;2022-12-18T02:01:37;94920.31;;;8.25;36.37
70902;BME280;58548;47.210;8.618;2022-12-18T02:04:25;94916.88;;;8.25;37.20
70902;BME280;58548;47.210;8.618;2022-12-18T02:07:03;94869.41;;;7.96;36.99
70902;BME280;58548;47.210;8.618;2022-12-18T02:09:50;94916.09;;;8.33;37.04
70902;BME280;58548;47.210;8.618;2022-12-18T02:12:42;94927.69;;;8.38;36.70
70902;BME280;58548;47.210;8.618;2022-12-18T02:15:36;94920.69;;;8.39;36.58
70902;BME280;58548;47.210;8.618;2022-12-18T02:18:14;94922.34;;;8.40;35.86
70902;BME280;58548;47.210;8.618;2022-12-18T02:31:26;94853.50;;;7.99;36.53
70902;BME280;58548;47.210;8.618;2022-12-18T02:34:00;94881.22;;;8.17;35.92
70902;BME280;58548;47.210;8.618;2022-12-18T02:36:28;94932.94;;;8.47;36.52
70902;BME280;58548;47.210;8.618;2022-12-18T02:38:56;94935.53;;;8.47;36.49
70902;BME280;58548;47.210;8.618;2022-12-18T02:41:25;94860.66;;;7.97;36.23
70902;BME280;58548;47.210;8.618;2022-12-18T02:44:01;94854.41;;;7.90;36.32
70902;BME280;58548;47.210;8.618;2022-12-18T02:46:31;94878.56;;;8.09;36.43
70902;BME280;58548;47.210;8.618;2022-12-18T03:03:16;94927.53;;;8.40;36.86
70902;BME280;58548;47.210;8.618;2022-12-18T03:05:57;94916.63;;;8.36;36.69
70902;BME280;58548;47.210;8.618;2022-12-18T03:08:37;94918.56;;;8.34;36.74
70902;BME280;58548;47.210;8.618;2022-12-18T03:11:12;94922.53;;;8.47;36.57
70902;BME280;58548;47.210;8.618;2022-12-18T03:13:45;94925.13;;;8.47;36.63
70902;BME280;58548;47.210;8.618;2022-12-18T03:16:28;94927.25;;;8.43;37.18
70902;BME280;58548;47.210;8.618;2022-12-18T03:19:01;94925.25;;;8.37;36.84
70902;BME280;58548;47.210;8.618;2022-12-18T03:21:39;94865.84;;;7.97;37.46
70902;BME280;58548;47.210;8.618;2022-12-18T03:24:08;94933.41;;;8.42;36.56
70902;BME280;58548;47.210;8.618;2022-12-18T03:26:40;94937.34;;;8.46;36.98
70902;BME280;58548;47.210;8.618;2022-12-18T03:29:24;94952.00;;;8.47;36.52
70902;BME280;58548;47.210;8.618;2022-12-18T03:31:58;94900.25;;;8.18;37.02
70902;BME280;58548;47.210;8.618;2022-12-18T03:34:33;94899.44;;;8.17;37.25
70902;BME280;58548;47.210;8.618;2022-12-18T03:37:02;94949.09;;;8.50;37.36
70902;BME280;58548;47.210;8.618;2022-12-18T03:39:29;94945.88;;;8.56;36.11
70902;BME280;58548;47.210;8.618;2022-12-18T03:42:12;94948.06;;;8.43;36.63
70902;BME280;58548;47.210;8.618;2022-12-18T03:47:40;94906.50;;;7.98;36.90
70902;BME280;58548;47.210;8.618;2022-12-18T03:50:20;94930.66;;;8.17;36.74
70902;BME280;58548;47.210;8.618;2022-12-18T03:52:54;94969.50;;;8.37;37.21
70902;BME280;58548;47.210;8.618;2022-12-18T03:55:27;94970.97;;;8.39;37.26
70902;BME280;58548;47.210;8.618;2022-12-18T03:58:01;94947.66;;;8.29;37.35
70902;BME280;58548;47.210;8.618;2022-12-18T04:00:31;94972.16;;;8.45;36.58
70902;BME280;58548;47.210;8.618;2022-12-18T04:03:01;94854.88;;;7.59;36.82
70902;BME280;58548;47.210;8.618;2022-12-18T04:05:31;94920.41;;;7.89;36.92
70902;BME280;58548;47.210;8.618;2022-12-18T04:08:01;94988.97;;;8.33;37.00
70902;BME280;58548;47.210;8.618;2022-12-18T04:10:30;94925.00;;;7.95;36.70
70902;BME280;58548;47.210;8.618;2022-12-18T04:13:01;94949.28;;;8.04;36.87
70902;BME280;58548;47.210;8.618;2022-12-18T04:15:29;94995.16;;;8.32;36.95
70902;BME280;58548;47.210;8.618;2022-12-18T04:17:59;94986.25;;;8.34;36.45
70902;BME280;58548;47.210;8.618;2022-12-18T04:20:28;94918.84;;;7.96;36.45
70902;BME280;58548;47.210;8.618;2022-12-18T04:22:56;94904.81;;;7.89;36.57
70902;BME280;58548;47.210;8.618;2022-12-18T04:25:24;94989.16;;;8.31;36.54
70902;BME280;58548;47.210;8.618;2022-12-18T04:27:50;94987.66;;;8.28;37.12
70902;BME280;58548;47.210;8.618;2022-12-18T04:30:16;94989.09;;;8.23;36.52
70902;BME280;58548;47.210;8.618;2022-12-18T04:32:44;94996.59;;;8.26;36.61
70902;BME280;58548;47.210;8.618;2022-12-18T04:35:12;94966.63;;;7.95;36.35
70902;BME280;58548;47.210;8.618;2022-12-18T04:37:38;95011.84;;;8.21;36.12
70902;BME280;58548;47.210;8.618;2022-12-18T04:40:04;94969.06;;;7.97;36.77
70902;BME280;58548;47.210;8.618;2022-12-18T04:42:30;95016.53;;;8.17;36.59
70902;BME280;58548;47.210;8.618;2022-12-18T04:44:58;95010.81;;;8.13;36.86
70902;BME280;58548;47.210;8.618;2022-12-18T04:47:26;95015.19;;;8.13;36.86
70902;BME280;58548;47.210;8.618;2022-12-18T04:49:52;95015.56;;;8.18;36.66
70902;BME280;58548;47.210;8.618;2022-12-18T04:52:20;94993.31;;;7.97;36.44
70902;BME280;58548;47.210;8.618;2022-12-18T04:54:46;95001.97;;;8.06;36.42
70902;BME280;58548;47.210;8.618;2022-12-18T04:57:12;95022.34;;;8.11;36.54
70902;BME280;58548;47.210;8.618;2022-12-18T04:59:38;95014.47;;;8.03;36.85
70902;BME280;58548;47.210;8.618;2022-12-18T05:02:04;95016.25;;;8.02;36.56
70902;BME280;58548;47.210;8.618;2022-12-18T05:04:30;95025.56;;;8.05;36.63
70902;BME280;58548;47.210;8.618;2022-12-18T05:06:58;94937.91;;;7.61;36.62
70902;BME280;58548;47.210;8.618;2022-12-18T05:09:24;95011.97;;;7.93;36.56
70902;BME280;58548;47.210;8.618;2022-12-18T05:11:52;95019.78;;;7.93;36.71
70902;BME280;58548;47.210;8.618;2022-12-18T05:14:20;94960.13;;;7.55;36.83
70902;BME280;58548;47.210;8.618;2022-12-18T05:16:46;94937.19;;;7.50;36.54
70902;BME280;58548;47.210;8.618;2022-12-18T05:19:14;95016.34;;;7.92;37.13
70902;BME280;58548;47.210;8.618;2022-12-18T05:21:40;94918.16;;;7.32;35.92
70902;BME280;58548;47.210;8.618;2022-12-18T05:24:08;94960.84;;;7.65;36.21
70902;BME280;58548;47.210;8.618;2022-12-18T05:26:37;95019.69;;;8.03;36.47
70902;BME280;58548;47.210;8.618;2022-12-18T05:29:05;95024.97;;;7.93;36.63
70902;BME280;58548;47.210;8.618;2022-12-18T05:31:31;94999.94;;;7.74;36.48
70902;BME280;58548;47.210;8.618;2022-12-18T05:33:59;94961.53;;;7.49;36.88
70902;BME280;58548;47.210;8.618;2022-12-18T05:36:27;94998.97;;;7.75;36.33
70902;BME280;58548;47.210;8.618;2022-12-18T05:38:56;95012.69;;;7.85;36.59
70902;BME280;58548;47.210;8.618;2022-12-18T05:41:21;94945.78;;;7.33;36.68
70902;BME280;58548;47.210;8.618;2022-12-18T05:43:52;95010.63;;;7.70;36.47
70902;BME280;58548;47.210;8.618;2022-12-18T05:46:20;94963.59;;;7.46;36.41
70902;BME280;58548;47.210;8.618;2022-12-18T05:48:46;95010.84;;;7.77;36.83
70902;BME280;58548;47.210;8.618;2022-12-18T05:51:19;94993.25;;;7.53;36.79
70902;BME280;58548;47.210;8.618;2022-12-18T05:53:47;95014.56;;;7.57;36.43
70902;BME280;58548;47.210;8.618;2022-12-18T05:56:17;95019.69;;;7.66;36.54
70902;BME280;58548;47.210;8.618;2022-12-18T05:58:43;94989.97;;;7.51;36.58
70902;BME280;58548;47.210;8.618;2022-12-18T06:01:19;95010.31;;;7.74;37.24
70902;BME280;58548;47.210;8.618;2022-12-18T06:03:45;95015.16;;;7.87;36.73
70902;BME280;58548;47.210;8.618;2022-12-18T06:06:22;94993.75;;;7.75;37.30
70902;BME280;58548;47.210;8.618;2022-12-18T06:08:50;94948.69;;;7.48;36.98
70902;BME280;58548;47.210;8.618;2022-12-18T06:11:19;94953.72;;;7.31;36.83
70902;BME280;58548;47.210;8.618;2022-12-18T06:13:46;94957.31;;;7.48;36.79
70902;BME280;58548;47.210;8.618;2022-12-18T06:16:12;94960.63;;;7.22;36.84
70902;BME280;58548;47.210;8.618;2022-12-18T06:18:41;95024.28;;;7.73;36.67
70902;BME280;58548;47.210;8.618;2022-12-18T06:21:07;95002.75;;;7.62;36.56
70902;BME280;58548;47.210;8.618;2022-12-18T06:23:33;94976.88;;;7.43;36.54
70902;BME280;58548;47.210;8.618;2022-12-18T06:26:06;95022.56;;;7.63;36.65
70902;BME280;58548;47.210;8.618;2022-12-18T06:28:37;94974.22;;;7.34;37.18
70902;BME280;58548;47.210;8.618;2022-12-18T06:31:04;94997.69;;;7.43;36.91
70902;BME280;58548;47.210;8.618;2022-12-18T06:33:30;95050.50;;;7.79;36.83
70902;BME280;58548;47.210;8.618;2022-12-18T06:36:04;95032.47;;;7.78;36.43
70902;BME280;58548;47.210;8.618;2022-12-18T06:38:35;95036.34;;;7.74;36.15
70902;BME280;58548;47.210;8.618;2022-12-18T06:41:09;94976.88;;;7.43;36.27
70902;BME280;58548;47.210;8.618;2022-12-18T06:43:36;95054.00;;;7.88;36.13
70902;BME280;58548;47.210;8.618;2022-12-18T06:46:03;95036.34;;;7.74;36.72
70902;BME280;58548;47.210;8.618;2022-12-18T06:48:34;94994.88;;;7.54;36.30
70902;BME280;58548;47.210;8.618;2022-12-18T06:51:01;95046.66;;;7.83;36.23
70902;BME280;58548;47.210;8.618;2022-12-18T06:53:27;95051.56;;;7.87;36.27
70902;BME280;58548;47.210;8.618;2022-12-18T06:56:00;95050.28;;;7.73;35.97
70902;BME280;58548;47.210;8.618;2022-12-18T06:58:32;95062.84;;;7.77;36.19
70902;BME280;58548;47.210;8.618;2022-12-18T07:01:02;95033.88;;;7.54;36.56
70902;BME280;58548;47.210;8.618;2022-12-18T07:03:29;95054.50;;;7.55;36.27
70902;BME280;58548;47.210;8.618;2022-12-18T07:05:54;95083.88;;;7.84;36.32
70902;BME280;58548;47.210;8.618;2022-12-18T07:08:21;95075.34;;;7.74;36.36
70902;BME280;58548;47.210;8.618;2022-12-18T07:10:51;95074.94;;;7.68;36.85
70902;BME280;58548;47.210;8.618;2022-12-18T07:13:18;95067.31;;;7.67;36.99
70902;BME280;58548;47.210;8.618;2022-12-18T07:15:51;95098.16;;;7.80;36.38
70902;BME280;58548;47.210;8.618;2022-12-18T07:18:20;95072.97;;;7.62;36.56
70902;BME280;58548;47.210;8.618;2022-12-18T07:20:48;95079.34;;;7.68;36.57
70902;BME280;58548;47.210;8.618;2022-12-18T07:23:18;95095.84;;;7.77;36.86
70902;BME280;58548;47.210;8.618;2022-12-18T07:25:47;95089.19;;;7.64;36.04
70902;BME280;58548;47.210;8.618;2022-12-18T07:28:20;95049.19;;;7.29;36.33
70902;BME280;58548;47.210;8.618;2022-12-18T07:30:48;95103.84;;;7.65;36.20
70902;BME280;58548;47.210;8.618;2022-12-18T07:33:14;95125.47;;;7.84;35.92
70902;BME280;58548;47.210;8.618;2022-12-18T07:35:45;95103.47;;;7.60;36.31
70902;BME280;58548;47.210;8.618;2022-12-18T07:38:13;95111.28;;;7.60;36.58
70902;BME280;58548;47.210;8.618;2022-12-18T07:40:41;95132.16;;;7.68;36.83
70902;BME280;58548;47.210;8.618;2022-12-18T07:43:07;95098.56;;;7.57;36.81
70902;BME280;58548;47.210;8.618;2022-12-18T07:45:33;95125.03;;;7.70;36.84
70902;BME280;58548;47.210;8.618;2022-12-18T07:48:01;95135.72;;;7.67;36.62
70902;BME280;58548;47.210;8.618;2022-12-18T07:50:30;95129.72;;;7.67;36.50
70902;BME280;58548;47.210;8.618;2022-12-18T07:52:58;95048.69;;;7.26;36.54
70902;BME280;58548;47.210;8.618;2022-12-18T07:55:30;95126.03;;;7.60;36.96
70902;BME280;58548;47.210;8.618;2022-12-18T07:58:01;95090.19;;;7.35;37.04
70902;BME280;58548;47.210;8.618;2022-12-18T08:00:27;95056.59;;;7.24;36.79
70902;BME280;58548;47.210;8.618;2022-12-18T08:02:55;95119.06;;;7.60;36.71
70902;BME280;58548;47.210;8.618;2022-12-18T08:05:21;95119.75;;;7.62;36.44
70902;BME280;58548;47.210;8.618;2022-12-18T08:07:49;95140.84;;;7.77;36.54
70902;BME280;58548;47.210;8.618;2022-12-18T08:10:17;95103.16;;;7.63;36.44
70902;BME280;58548;47.210;8.618;2022-12-18T08:12:43;95095.16;;;7.75;36.59
70902;BME280;58548;47.210;8.618;2022-12-18T08:15:11;95090.84;;;7.65;36.12
70902;BME280;58548;47.210;8.618;2022-12-18T08:17:37;95083.72;;;7.67;36.25
70902;BME280;58548;47.210;8.618;2022-12-18T08:20:06;95090.25;;;7.72;36.28
70902;BME280;58548;47.210;8.618;2022-12-18T08:22:34;95085.34;;;7.68;36.22
70902;BME280;58548;47.210;8.618;2022-12-18T08:25:03;95144.91;;;8.08;36.11
70902;BME280;58548;47.210;8.618;2022-12-18T08:27:34;95147.50;;;8.08;35.82
70902;BME280;58548;47.210;8.618;2022-12-18T08:30:00;95095.16;;;7.75;36.15
70902;BME280;58548;47.210;8.618;2022-12-18T08:32:26;95142.25;;;7.99;36.54
70902;BME280;58548;47.210;8.618;2022-12-18T08:34:55;95149.09;;;8.00;36.25
70902;BME280;58548;47.210;8.618;2022-12-18T08:37:21;95158.16;;;8.14;36.16
70902;BME280;58548;47.210;8.618;2022-12-18T08:39:47;95152.63;;;8.18;35.92
70902;BME280;58548;47.210;8.618;2022-12-18T08:42:13;95166.88;;;8.23;36.20
70902;BME280;58548;47.210;8.618;2022-12-18T08:45:00;95152.63;;;8.18;36.29
70902;BME280;58548;47.210;8.618;2022-12-18T08:47:26;95134.22;;;8.11;36.47
70902;BME280;58548;47.210;8.618;2022-12-18T08:49:54;95105.72;;;7.91;35.98
70902;BME280;58548;47.210;8.618;2022-12-18T08:52:23;95169.09;;;8.36;35.86
70902;BME280;58548;47.210;8.618;2022-12-18T08:54:48;95152.81;;;8.34;35.74
70902;BME280;58548;47.210;8.618;2022-12-18T08:57:14;95170.28;;;8.42;35.70
70902;BME280;58548;47.210;8.618;2022-12-18T08:59:40;95161.34;;;8.44;35.76
70902;BME280;58548;47.210;8.618;2022-12-18T09:02:14;95157.34;;;8.50;36.13
70902;BME280;58548;47.210;8.618;2022-12-18T09:04:42;95153.13;;;8.49;35.82
70902;BME280;58548;47.210;8.618;2022-12-18T09:07:08;95153.19;;;8.57;35.76
70902;BME280;58548;47.210;8.618;2022-12-18T09:09:37;95138.44;;;8.66;35.22
70902;BME280;58548;47.210;8.618;2022-12-18T09:12:03;95133.41;;;8.65;35.12
70902;BME280;58548;47.210;8.618;2022-12-18T09:14:31;95071.25;;;8.25;35.64
70902;BME280;58548;47.210;8.618;2022-12-18T09:16:57;95084.38;;;8.42;35.58
70902;BME280;58548;47.210;8.618;2022-12-18T09:19:23;95083.13;;;8.46;35.79
70902;BME280;58548;47.210;8.618;2022-12-18T09:21:49;95066.47;;;8.39;35.26
70902;BME280;58548;47.210;8.618;2022-12-18T09:24:16;95072.94;;;8.53;35.05
70902;BME280;58548;47.210;8.618;2022-12-18T09:26:42;95080.69;;;8.71;35.25
70902;BME280;58548;47.210;8.618;2022-12-18T09:29:08;95131.66;;;9.00;34.64
70902;BME280;58548;47.210;8.618;2022-12-18T09:31:36;95125.22;;;9.12;35.10
70902;BME280;58548;47.210;8.618;2022-12-18T09:34:04;95064.16;;;8.80;34.69
70902;BME280;58548;47.210;8.618;2022-12-18T09:36:30;95128.25;;;9.34;34.10
70902;BME280;58548;47.210;8.618;2022-12-18T09:38:56;95062.03;;;8.84;34.56
70902;BME280;58548;47.210;8.618;2022-12-18T09:44:03;95114.31;;;9.43;34.00
70902;BME280;58548;47.210;8.618;2022-12-18T09:46:36;95077.06;;;9.25;34.03
70902;BME280;58548;47.210;8.618;2022-12-18T09:49:14;95120.47;;;9.42;34.57
70902;BME280;58548;47.210;8.618;2022-12-18T09:51:50;95066.25;;;9.11;33.68
70902;BME280;58548;47.210;8.618;2022-12-18T09:54:49;95126.72;;;9.49;33.97
70902;BME280;58548;47.210;8.618;2022-12-18T09:57:22;95120.31;;;9.44;34.24
70902;BME280;58548;47.210;8.618;2022-12-18T10:00:15;95120.22;;;9.62;33.79
70902;BME280;58548;47.210;8.618;2022-12-18T10:02:43;95058.84;;;9.25;33.77
70902;BME280;58548;47.210;8.618;2022-12-18T10:05:16;95074.03;;;9.03;33.60
70902;BME280;58548;47.210;8.618;2022-12-18T10:18:15;95071.81;;;9.08;33.12
70902;BME280;58548;47.210;8.618;2022-12-18T10:20:52;95145.94;;;9.48;33.66
70902;BME280;58548;47.210;8.618;2022-12-18T10:25:59;95135.94;;;9.78;33.53
70902;BME280;58548;47.210;8.618;2022-12-18T10:28:30;95095.44;;;9.49;33.19
70902;BME280;58548;47.210;8.618;2022-12-18T10:30:57;95116.00;;;9.61;33.07
70902;BME280;58548;47.210;8.618;2022-12-18T10:33:29;95129.91;;;9.78;33.11
70902;BME280;58548;47.210;8.618;2022-12-18T10:35:56;95124.91;;;9.93;32.67
70902;BME280;58548;47.210;8.618;2022-12-18T10:38:29;95105.59;;;9.69;32.96
70902;BME280;58548;47.210;8.618;2022-12-18T10:46:17;95145.91;;;9.83;32.78
70902;BME280;58548;47.210;8.618;2022-12-18T10:54:03;95149.63;;;9.80;33.04
70902;BME280;58548;47.210;8.618;2022-12-18T10:56:35;95135.94;;;9.78;32.90
70902;BME280;58548;47.210;8.618;2022-12-18T10:59:10;95098.03;;;9.49;32.61
70902;BME280;58548;47.210;8.618;2022-12-18T11:01:53;95142.59;;;9.73;32.55
70902;BME280;58548;47.210;8.618;2022-12-18T11:04:26;95160.44;;;9.94;33.15
70902;BME280;58548;47.210;8.618;2022-12-18T11:07:02;95162.78;;;10.14;32.63
70902;BME280;58548;47.210;8.618;2022-12-18T11:09:34;95161.16;;;10.21;32.78
70902;BME280;58548;47.210;8.618;2022-12-18T11:12:17;95113.81;;;9.91;32.45
70902;BME280;58548;47.210;8.618;2022-12-18T11:14:46;95154.00;;;10.31;32.50
70902;BME280;58548;47.210;8.618;2022-12-18T11:20:00;95101.72;;;9.98;32.50
70902;BME280;58548;47.210;8.618;2022-12-18T11:22:32;95140.59;;;10.18;32.11
70902;BME280;58548;47.210;8.618;2022-12-18T11:27:51;95129.00;;;10.04;32.26
70902;BME280;58548;47.210;8.618;2022-12-18T11:30:24;95121.25;;;9.69;32.88
70902;BME280;58548;47.210;8.618;2022-12-18T11:33:23;95109.84;;;9.70;33.29
70902;BME280;58548;47.210;8.618;2022-12-18T11:35:55;95111.13;;;9.66;32.86
70902;BME280;58548;47.210;8.618;2022-12-18T11:44:01;95027.50;;;9.16;32.99
70902;BME280;58548;47.210;8.618;2022-12-18T11:46:36;95093.47;;;9.52;33.14
70902;BME280;58548;47.210;8.618;2022-12-18T11:49:12;94977.72;;;8.85;33.54
70902;BME280;58548;47.210;8.618;2022-12-18T11:54:28;95102.25;;;10.02;32.40
70902;BME280;58548;47.210;8.618;2022-12-18T12:00:17;95034.19;;;9.70;33.13
70902;BME280;58548;47.210;8.618;2022-12-18T12:11:26;95109.44;;;10.24;33.14
70902;BME280;58548;47.210;8.618;2022-12-18T12:16:49;95113.53;;;10.27;32.97
70902;BME280;58548;47.210;8.618;2022-12-18T12:19:25;95111.41;;;10.22;33.20
70902;BME280;58548;47.210;8.618;2022-12-18T12:27:52;95100.16;;;10.30;32.58
70902;BME280;58548;47.210;8.618;2022-12-18T12:30:34;95098.66;;;10.19;32.91
70902;BME280;58548;47.210;8.618;2022-12-18T12:36:17;95013.66;;;9.84;33.03
70902;BME280;58548;47.210;8.618;2022-12-18T12:38:51;95077.13;;;10.01;32.89
70902;BME280;58548;47.210;8.618;2022-12-18T12:41:26;95070.91;;;9.93;33.56
70902;BME280;58548;47.210;8.618;2022-12-18T12:44:19;95014.13;;;9.71;33.44
70902;BME280;58548;47.210;8.618;2022-12-18T12:46:48;95082.19;;;10.10;33.56
70902;BME280;58548;47.210;8.618;2022-12-18T12:49:19;95029.81;;;9.95;32.87
70902;BME280;58548;47.210;8.618;2022-12-18T12:52:06;95069.78;;;10.21;33.04
70902;BME280;58548;47.210;8.618;2022-12-18T12:54:36;95063.41;;;10.32;33.21
70902;BME280;58548;47.210;8.618;2022-12-18T12:57:18;95059.03;;;10.32;33.13
70902;BME280;58548;47.210;8.618;2022-12-18T13:00:06;95060.84;;;10.40;32.86
70902;BME280;58548;47.210;8.618;2022-12-18T13:08:27;94996.06;;;10.02;33.48
70902;BME280;58548;47.210;8.618;2022-12-18T13:10:58;95053.16;;;10.38;33.06
70902;BME280;58548;47.210;8.618;2022-12-18T13:13:53;95056.44;;;10.40;33.30
70902;BME280;58548;47.210;8.618;2022-12-18T13:16:27;95061.66;;;10.40;33.04
70902;BME280;58548;47.210;8.618;2022-12-18T13:18:57;95016.91;;;10.19;33.38
70902;BME280;58548;47.210;8.618;2022-12-18T13:21:34;95069.66;;;10.47;33.05
70902;BME280;58548;47.210;8.618;2022-12-18T13:24:26;95034.41;;;10.26;33.27
70902;BME280;58548;47.210;8.618;2022-12-18T13:26:55;95076.34;;;10.41;33.08
70902;BME280;58548;47.210;8.618;2022-12-18T13:29:44;95075.38;;;10.43;33.52
70902;BME280;58548;47.210;8.618;2022-12-18T13:32:22;95058.88;;;10.25;33.83
70902;BME280;58548;47.210;8.618;2022-12-18T13:37:54;95068.81;;;10.22;33.69
70902;BME280;58548;47.210;8.618;2022-12-18T13:46:01;95078.59;;;10.20;33.62
70902;BME280;58548;47.210;8.618;2022-12-18T13:48:37;95077.94;;;10.09;33.64
70902;BME280;58548;47.210;8.618;2022-12-18T13:51:07;95074.34;;;10.10;33.73
70902;BME280;58548;47.210;8.618;2022-12-18T13:53:41;95028.66;;;9.73;33.54
70902;BME280;58548;47.210;8.618;2022-12-18T13:56:08;95063.91;;;9.94;34.13
70902;BME280;58548;47.210;8.618;2022-12-18T13:58:34;95074.97;;;9.96;34.15
70902;BME280;58548;47.210;8.618;2022-12-18T14:01:03;95063.91;;;9.94;33.81
70902;BME280;58548;47.210;8.618;2022-12-18T14:03:32;95076.59;;;9.97;34.24
70902;BME280;58548;47.210;8.618;2022-12-18T14:06:06;95062.94;;;9.95;33.72
70902;BME280;58548;47.210;8.618;2022-12-18T14:08:37;95036.00;;;9.78;33.95
70902;BME280;58548;47.210;8.618;2022-12-18T14:11:06;95075.16;;;10.03;33.24
70902;BME280;58548;47.210;8.618;2022-12-18T14:13:39;95079.25;;;10.05;33.84
70902;BME280;58548;47.210;8.618;2022-12-18T14:16:07;95016.56;;;9.64;33.80
70902;BME280;58548;47.210;8.618;2022-12-18T14:18:55;95073.03;;;9.90;34.02
70902;BME280;58548;47.210;8.618;2022-12-18T14:21:26;95074.81;;;9.89;34.20
70902;BME280;58548;47.210;8.618;2022-12-18T14:24:14;95078.41;;;9.88;34.28
70902;BME280;58548;47.210;8.618;2022-12-18T14:26:44;95079.53;;;9.86;34.83
70902;BME280;58548;47.210;8.618;2022-12-18T14:31:45;95090.31;;;9.91;34.25
70902;BME280;58548;47.210;8.618;2022-12-18T14:34:26;95064.66;;;9.70;34.65
70902;BME280;58548;47.210;8.618;2022-12-18T14:36:55;95038.72;;;9.60;34.15
70902;BME280;58548;47.210;8.618;2022-12-18T14:39:22;95060.09;;;9.63;34.82
70902;BME280;58548;47.210;8.618;2022-12-18T14:41:51;95077.25;;;9.74;34.85
70902;BME280;58548;47.210;8.618;2022-12-18T14:44:18;95077.03;;;9.68;35.13
70902;BME280;58548;47.210;8.618;2022-12-18T14:46:46;95024.81;;;9.34;34.53
70902;BME280;58548;47.210;8.618;2022-12-18T14:49:23;95080.75;;;9.57;35.09
70902;BME280;58548;47.210;8.618;2022-12-18T14:54:25;95058.88;;;9.41;35.07
70902;BME280;58548;47.210;8.618;2022-12-18T14:57:27;95068.34;;;9.42;34.83
70902;BME280;58548;47.210;8.618;2022-12-18T15:00:15;95066.47;;;9.26;35.00
70902;BME280;58548;47.210;8.618;2022-12-18T15:02:43;95070.34;;;9.14;35.34
70902;BME280;58548;47.210;8.618;2022-12-18T15:07:44;95002.44;;;8.81;35.72
70902;BME280;58548;47.210;8.618;2022-12-18T15:20:27;95013.94;;;8.62;36.19
70902;BME280;58548;47.210;8.618;2022-12-18T15:22:53;95010.72;;;8.68;36.07
70902;BME280;58548;47.210;8.618;2022-12-18T15:25:35;95006.78;;;8.64;35.85
70902;BME280;58548;47.210;8.618;2022-12-18T15:28:17;95073.25;;;8.76;35.76
70902;BME280;58548;47.210;8.618;2022-12-18T15:36:13;95023.47;;;8.08;36.55
70902;BME280;58548;47.210;8.618;2022-12-18T15:38:48;95026.28;;;8.15;36.70
70902;BME280;58548;47.210;8.618;2022-12-18T15:41:18;95070.22;;;8.18;36.94
70902;BME280;58548;47.210;8.618;2022-12-18T15:43:47;95034.25;;;7.95;37.20